Flight Track Log - Related Links

Times and Time Zones

All times are in EDT time to prevent confusion due to time zone crossing. See the AWE647 flight status page for this flight to view local times or setup timezone preferences in your user account.

Time Position Orientation Groundspeed Altitude Reporting Facility
EDT Latitude Longitude Course Direction KTS MPH feet Rate Location/Type
Sun 01:28:03 PM 33.4333 -111.9833 273° West 166 191 2,100  Level Phoenix TRACON
Sun 01:28:52 PM 33.4333 -111.9500 90° East 160 184 3,600 2,092 Climbing Phoenix TRACON
Sun 01:29:52 PM 33.4333 -111.8667 90° East 227 261 5,900 2,750 Climbing Phoenix TRACON
Sun 01:30:00 PM 33.4333 -112.3551 270° West  Level FlightAware Approximate
Sun 01:30:52 PM 33.3833 -111.8500 164° South 238 274 9,100  Level Phoenix TRACON
Sun 01:31:00 PM 33.4371 -112.4734 273° West  Level FlightAware Approximate
Sun 01:31:53 PM 33.3167 -111.8667 192° South 246 283 11,900  Level Phoenix TRACON
Sun 01:32:00 PM 33.4418 -112.5917 273° West  Level FlightAware Approximate
Sun 01:32:08 PM 33.3056 -111.8619 160° South 243 280 12,100  Level Albuquerque Center
Sun 01:33:00 PM 33.4465 -112.7099 273° West  Level FlightAware Approximate
Sun 01:33:10 PM 33.2431 -111.9167 216° Southwest 283 326 13,700  Level Albuquerque Center
Sun 01:34:12 PM 33.2489 -112.0194 274° West 325 374 16,100 2,274 Climbing Albuquerque Center
Sun 01:35:14 PM 33.2750 -112.1242 287° West 329 379 18,400 2,516 Climbing Albuquerque Center
Sun 01:36:16 PM 33.3089 -112.2553 287° West 342 394 21,300 2,371 Climbing Albuquerque Center
Sun 01:37:18 PM 33.3375 -112.3683 287° West 352 405 23,300 2,129 Climbing Albuquerque Center
Sun 01:38:20 PM 33.3669 -112.4853 287° West 364 419 25,700 2,081 Climbing Albuquerque Center
Sun 01:39:22 PM 33.3961 -112.5972 287° West 355 409 27,600 1,500 Climbing Albuquerque Center
Sun 01:40:24 PM 33.4297 -112.7294 287° West 361 415 28,800 1,065 Climbing Albuquerque Center
Sun 01:41:26 PM 33.4600 -112.8528 286° West 378 435 29,800 581 Climbing Albuquerque Center
Sun 01:42:28 PM 33.4850 -112.9858 283° West 399 459 30,000 97 Climbing Albuquerque Center
Sun 01:43:30 PM 33.5097 -113.1147 283° West 402 463 30,000 -48 Level Albuquerque Center
Sun 01:44:32 PM 33.5342 -113.2450 283° West 402 463 29,900 -48 Descending Albuquerque Center
Sun 01:45:34 PM 33.5639 -113.4019 283° West 403 464 29,900 48 Level Albuquerque Center
Sun 01:46:36 PM 33.5889 -113.5336 283° West 405 466 30,000 48 Climbing Albuquerque Center
Sun 01:47:38 PM 33.6131 -113.6650 282° West 406 467 30,000  Level Albuquerque Center
Sun 01:48:40 PM 33.6403 -113.8114 283° West 407 468 30,000  Level Albuquerque Center
Sun 01:49:42 PM 33.6653 -113.9450 283° West 410 472 30,000  Level Albuquerque Center
Sun 01:50:44 PM 33.6892 -114.0769 282° West 407 468 30,000 -31 Level Albuquerque Center
Sun 01:52:56 PM 33.7417 -114.3658 282° West 406 467 29,900  Descending Los Angeles Center
Sun 01:53:58 PM 33.7672 -114.5078 282° West 430 495 30,000  Climbing Los Angeles Center
Sun 01:55:00 PM 33.7825 -114.6547 277° West 443 510 29,900 -48 Descending Los Angeles Center
Sun 01:56:02 PM 33.7917 -114.8314 274° West 444 511 29,900 48 Level Los Angeles Center
Sun 01:57:04 PM 33.7989 -114.9781 273° West 441 507 30,000 48 Climbing Los Angeles Center
Sun 01:58:06 PM 33.8075 -115.1244 274° West 440 506 30,000 -48 Level Los Angeles Center
Sun 01:59:08 PM 33.8156 -115.2708 274° West 440 506 29,900  Descending Los Angeles Center
Sun 02:00:10 PM 33.8228 -115.4172 273° West 441 507 30,000 48 Climbing Los Angeles Center
Sun 02:01:13 PM 33.8311 -115.5922 273° West 440 506 30,000  Level Los Angeles Center
Sun 02:02:15 PM 33.8394 -115.7389 274° West 442 509 30,000  Level Los Angeles Center
Sun 02:03:17 PM 33.8458 -115.8867 273° West 444 511 30,000 -677 Level Los Angeles Center
Sun 02:04:19 PM 33.8528 -116.0344 273° West 446 513 28,600 -1,694 Descending Los Angeles Center
Sun 02:05:21 PM 33.8592 -116.1814 273° West 445 512 26,500 -2,516 Descending Los Angeles Center
Sun 02:06:23 PM 33.8681 -116.3494 274° West 423 487 23,400 -2,758 Descending Los Angeles Center
Sun 02:07:25 PM 33.8742 -116.4853 273° West 413 475 20,800 -2,516 Descending Los Angeles Center
Sun 02:08:27 PM 33.8794 -116.6161 273° West 401 461 18,200 -2,419 Descending Los Angeles Center
Sun 02:09:29 PM 33.8850 -116.7411 273° West 384 442 15,800 -2,419 Descending Los Angeles Center
Sun 02:10:31 PM 33.9075 -116.8614 283° West 376 433 13,200 -2,120 Descending Los Angeles Center
Sun 02:11:42 PM 33.9500 -117.0167 288° West 323 372 11,100 -2,107 Descending Southern California TRACON
Sun 02:12:42 PM 33.9833 -117.1000 296° West 289 333 8,600 -2,450 Descending Southern California TRACON
Sun 02:13:42 PM 34.0000 -117.1833 284° West 286 329 6,200 -1,950 Descending Southern California TRACON
Sun 02:14:42 PM 34.0333 -117.2667 296° West 256 295 4,700 -1,000 Descending Southern California TRACON
Sun 02:15:42 PM 34.0500 -117.3500 284° West 222 255 4,200 -496 Descending Southern California TRACON
Sun 02:16:43 PM 34.0500 -117.4000 270° West 176 203 3,700 -492 Descending Southern California TRACON

Login

Don't have an account? Register now (free) for customized features, flight alerts, and more!